sensor_id;sensor_type;location;lat;lon;timestamp;temperature;humidity
8820;DHT22;4446;50.876;4.736;2023-04-28T00:02:13;9.50;99.90
8820;DHT22;4446;50.876;4.736;2023-04-28T00:04:40;9.30;99.90
8820;DHT22;4446;50.876;4.736;2023-04-28T00:07:07;9.20;99.90
8820;DHT22;4446;50.876;4.736;2023-04-28T00:09:34;9.10;99.90
8820;DHT22;4446;50.876;4.736;2023-04-28T00:12:01;9.10;99.90
8820;DHT22;4446;50.876;4.736;2023-04-28T00:14:28;9.00;99.90
8820;DHT22;4446;50.876;4.736;2023-04-28T00:16:56;9.00;99.90
8820;DHT22;4446;50.876;4.736;2023-04-28T00:19:24;9.00;99.90
8820;DHT22;4446;50.876;4.736;2023-04-28T00:21:51;8.90;99.90
8820;DHT22;4446;50.876;4.736;2023-04-28T00:24:18;8.80;99.90
8820;DHT22;4446;50.876;4.736;2023-04-28T00:26:45;8.80;99.90
8820;DHT22;4446;50.876;4.736;2023-04-28T00:29:12;8.70;99.90
8820;DHT22;4446;50.876;4.736;2023-04-28T00:31:39;8.70;99.90
8820;DHT22;4446;50.876;4.736;2023-04-28T00:34:07;8.70;99.90
8820;DHT22;4446;50.876;4.736;2023-04-28T00:36:38;8.70;99.90
8820;DHT22;4446;50.876;4.736;2023-04-28T00:39:05;8.70;99.90
8820;DHT22;4446;50.876;4.736;2023-04-28T00:41:33;8.70;99.90
8820;DHT22;4446;50.876;4.736;2023-04-28T00:44:00;8.70;99.90
8820;DHT22;4446;50.876;4.736;2023-04-28T00:46:29;8.70;99.90
8820;DHT22;4446;50.876;4.736;2023-04-28T00:48:57;8.60;99.90
8820;DHT22;4446;50.876;4.736;2023-04-28T00:51:26;8.60;99.90
8820;DHT22;4446;50.876;4.736;2023-04-28T00:53:53;8.60;99.90
8820;DHT22;4446;50.876;4.736;2023-04-28T00:56:21;8.60;99.90
8820;DHT22;4446;50.876;4.736;2023-04-28T00:58:48;8.60;99.90
8820;DHT22;4446;50.876;4.736;2023-04-28T01:01:15;8.60;99.90
8820;DHT22;4446;50.876;4.736;2023-04-28T01:03:42;8.60;99.90
8820;DHT22;4446;50.876;4.736;2023-04-28T01:06:09;8.70;99.90
8820;DHT22;4446;50.876;4.736;2023-04-28T01:08:38;8.70;99.90
8820;DHT22;4446;50.876;4.736;2023-04-28T01:11:06;8.70;99.90
8820;DHT22;4446;50.876;4.736;2023-04-28T01:13:35;8.70;99.90
8820;DHT22;4446;50.876;4.736;2023-04-28T01:16:02;8.80;99.90
8820;DHT22;4446;50.876;4.736;2023-04-28T01:18:30;8.70;99.90
8820;DHT22;4446;50.876;4.736;2023-04-28T01:20:57;8.80;99.90
8820;DHT22;4446;50.876;4.736;2023-04-28T01:23:24;8.80;99.90
8820;DHT22;4446;50.876;4.736;2023-04-28T01:25:53;8.80;99.90
8820;DHT22;4446;50.876;4.736;2023-04-28T01:28:20;8.80;99.90
8820;DHT22;4446;50.876;4.736;2023-04-28T01:30:47;8.80;99.90
8820;DHT22;4446;50.876;4.736;2023-04-28T01:33:14;8.80;99.90
8820;DHT22;4446;50.876;4.736;2023-04-28T01:35:41;8.80;99.90
8820;DHT22;4446;50.876;4.736;2023-04-28T01:38:07;8.80;99.90
8820;DHT22;4446;50.876;4.736;2023-04-28T01:40:35;8.80;99.90
8820;DHT22;4446;50.876;4.736;2023-04-28T01:43:03;8.80;99.90
8820;DHT22;4446;50.876;4.736;2023-04-28T01:45:30;8.80;99.90
8820;DHT22;4446;50.876;4.736;2023-04-28T01:47:57;8.90;99.90
8820;DHT22;4446;50.876;4.736;2023-04-28T01:50:24;8.90;99.90
8820;DHT22;4446;50.876;4.736;2023-04-28T01:52:51;8.90;99.90
8820;DHT22;4446;50.876;4.736;2023-04-28T01:55:18;8.90;99.90
8820;DHT22;4446;50.876;4.736;2023-04-28T01:57:45;8.90;99.90
8820;DHT22;4446;50.876;4.736;2023-04-28T02:00:14;8.90;99.90
8820;DHT22;4446;50.876;4.736;2023-04-28T02:02:41;8.90;99.90
8820;DHT22;4446;50.876;4.736;2023-04-28T02:05:08;8.90;99.90
8820;DHT22;4446;50.876;4.736;2023-04-28T02:07:35;8.90;99.90
8820;DHT22;4446;50.876;4.736;2023-04-28T02:10:03;8.90;99.90
8820;DHT22;4446;50.876;4.736;2023-04-28T02:12:30;8.90;99.90
8820;DHT22;4446;50.876;4.736;2023-04-28T02:14:57;8.90;99.90
8820;DHT22;4446;50.876;4.736;2023-04-28T02:17:25;8.80;99.90
8820;DHT22;4446;50.876;4.736;2023-04-28T02:19:54;8.80;99.90
8820;DHT22;4446;50.876;4.736;2023-04-28T02:22:22;8.80;99.90
8820;DHT22;4446;50.876;4.736;2023-04-28T02:24:49;8.80;99.90
8820;DHT22;4446;50.876;4.736;2023-04-28T02:27:16;8.80;99.90
8820;DHT22;4446;50.876;4.736;2023-04-28T02:29:43;8.80;99.90
8820;DHT22;4446;50.876;4.736;2023-04-28T02:32:10;8.80;99.90
8820;DHT22;4446;50.876;4.736;2023-04-28T02:34:39;8.80;99.90
8820;DHT22;4446;50.876;4.736;2023-04-28T02:37:06;8.80;99.90
8820;DHT22;4446;50.876;4.736;2023-04-28T02:39:33;8.80;99.90
8820;DHT22;4446;50.876;4.736;2023-04-28T02:42:00;8.90;99.90
8820;DHT22;4446;50.876;4.736;2023-04-28T02:44:30;8.90;99.90
8820;DHT22;4446;50.876;4.736;2023-04-28T02:46:56;8.90;99.90
8820;DHT22;4446;50.876;4.736;2023-04-28T02:49:23;8.90;99.90
8820;DHT22;4446;50.876;4.736;2023-04-28T02:51:52;9.00;99.90
8820;DHT22;4446;50.876;4.736;2023-04-28T02:54:19;9.00;99.90
8820;DHT22;4446;50.876;4.736;2023-04-28T02:56:52;8.90;99.90
8820;DHT22;4446;50.876;4.736;2023-04-28T02:59:19;8.90;99.90
8820;DHT22;4446;50.876;4.736;2023-04-28T03:01:46;8.90;99.90
8820;DHT22;4446;50.876;4.736;2023-04-28T03:04:14;8.90;99.90
8820;DHT22;4446;50.876;4.736;2023-04-28T03:06:41;8.90;99.90
8820;DHT22;4446;50.876;4.736;2023-04-28T03:09:10;8.90;99.90
8820;DHT22;4446;50.876;4.736;2023-04-28T03:11:37;9.00;99.90
8820;DHT22;4446;50.876;4.736;2023-04-28T03:14:04;9.00;99.90
8820;DHT22;4446;50.876;4.736;2023-04-28T03:16:31;9.00;99.90
8820;DHT22;4446;50.876;4.736;2023-04-28T03:18:58;9.00;99.90
8820;DHT22;4446;50.876;4.736;2023-04-28T03:21:25;9.00;99.90
8820;DHT22;4446;50.876;4.736;2023-04-28T03:23:53;9.10;99.90
8820;DHT22;4446;50.876;4.736;2023-04-28T03:26:21;9.10;99.90
8820;DHT22;4446;50.876;4.736;2023-04-28T03:28:49;9.10;99.90
8820;DHT22;4446;50.876;4.736;2023-04-28T03:31:15;9.10;99.90
8820;DHT22;4446;50.876;4.736;2023-04-28T03:33:43;9.10;99.90
8820;DHT22;4446;50.876;4.736;2023-04-28T03:36:11;9.10;99.90
8820;DHT22;4446;50.876;4.736;2023-04-28T03:38:38;9.10;99.90
8820;DHT22;4446;50.876;4.736;2023-04-28T03:41:05;9.10;99.90
8820;DHT22;4446;50.876;4.736;2023-04-28T03:43:34;9.10;99.90
8820;DHT22;4446;50.876;4.736;2023-04-28T03:46:02;9.10;99.90
8820;DHT22;4446;50.876;4.736;2023-04-28T03:48:29;9.10;99.90
8820;DHT22;4446;50.876;4.736;2023-04-28T03:50:56;9.10;99.90
8820;DHT22;4446;50.876;4.736;2023-04-28T03:53:23;9.10;99.90
8820;DHT22;4446;50.876;4.736;2023-04-28T03:55:50;9.20;99.90
8820;DHT22;4446;50.876;4.736;2023-04-28T03:58:17;9.10;99.90
8820;DHT22;4446;50.876;4.736;2023-04-28T04:00:46;9.10;99.90
8820;DHT22;4446;50.876;4.736;2023-04-28T04:03:13;9.20;99.90
8820;DHT22;4446;50.876;4.736;2023-04-28T04:05:40;9.20;99.90
8820;DHT22;4446;50.876;4.736;2023-04-28T04:08:07;9.20;99.90
8820;DHT22;4446;50.876;4.736;2023-04-28T04:10:34;9.20;99.90
8820;DHT22;4446;50.876;4.736;2023-04-28T04:13:01;9.30;99.90
8820;DHT22;4446;50.876;4.736;2023-04-28T04:15:28;9.30;99.90
8820;DHT22;4446;50.876;4.736;2023-04-28T04:17:57;9.30;99.90
8820;DHT22;4446;50.876;4.736;2023-04-28T04:20:24;9.30;99.90
8820;DHT22;4446;50.876;4.736;2023-04-28T04:22:51;9.40;99.90
8820;DHT22;4446;50.876;4.736;2023-04-28T04:25:18;9.30;99.90
8820;DHT22;4446;50.876;4.736;2023-04-28T04:27:45;9.40;99.90
8820;DHT22;4446;50.876;4.736;2023-04-28T04:30:12;9.40;99.90
8820;DHT22;4446;50.876;4.736;2023-04-28T04:32:39;9.40;99.90
8820;DHT22;4446;50.876;4.736;2023-04-28T04:35:09;9.50;99.90
8820;DHT22;4446;50.876;4.736;2023-04-28T04:37:37;9.50;99.90
8820;DHT22;4446;50.876;4.736;2023-04-28T04:40:05;9.60;99.90
8820;DHT22;4446;50.876;4.736;2023-04-28T04:42:33;9.50;99.90
8820;DHT22;4446;50.876;4.736;2023-04-28T04:45:00;9.60;99.90
8820;DHT22;4446;50.876;4.736;2023-04-28T04:47:27;9.70;99.90
8820;DHT22;4446;50.876;4.736;2023-04-28T04:49:54;9.60;99.90
8820;DHT22;4446;50.876;4.736;2023-04-28T04:52:22;9.70;99.90
8820;DHT22;4446;50.876;4.736;2023-04-28T04:54:49;9.70;99.90
8820;DHT22;4446;50.876;4.736;2023-04-28T04:57:16;9.70;99.90
8820;DHT22;4446;50.876;4.736;2023-04-28T04:59:43;9.70;99.90
8820;DHT22;4446;50.876;4.736;2023-04-28T05:02:11;9.70;99.90
8820;DHT22;4446;50.876;4.736;2023-04-28T05:04:38;9.80;99.90
8820;DHT22;4446;50.876;4.736;2023-04-28T05:07:05;9.80;99.90
8820;DHT22;4446;50.876;4.736;2023-04-28T05:09:33;9.90;99.90
8820;DHT22;4446;50.876;4.736;2023-04-28T05:12:00;9.90;99.90
8820;DHT22;4446;50.876;4.736;2023-04-28T05:14:27;10.00;99.90
8820;DHT22;4446;50.876;4.736;2023-04-28T05:16:56;10.00;99.90
8820;DHT22;4446;50.876;4.736;2023-04-28T05:19:23;10.00;99.90
8820;DHT22;4446;50.876;4.736;2023-04-28T05:21:50;10.00;99.90
8820;DHT22;4446;50.876;4.736;2023-04-28T05:24:20;10.10;99.90
8820;DHT22;4446;50.876;4.736;2023-04-28T05:26:50;10.10;99.90
8820;DHT22;4446;50.876;4.736;2023-04-28T05:29:17;10.10;99.90
8820;DHT22;4446;50.876;4.736;2023-04-28T05:31:44;10.20;99.90
8820;DHT22;4446;50.876;4.736;2023-04-28T05:34:11;10.30;99.90
8820;DHT22;4446;50.876;4.736;2023-04-28T05:36:38;10.40;99.90
8820;DHT22;4446;50.876;4.736;2023-04-28T05:39:05;10.50;99.90
8820;DHT22;4446;50.876;4.736;2023-04-28T05:41:33;10.60;99.90
8820;DHT22;4446;50.876;4.736;2023-04-28T05:44:02;10.50;99.90
8820;DHT22;4446;50.876;4.736;2023-04-28T05:46:29;10.60;99.90
8820;DHT22;4446;50.876;4.736;2023-04-28T05:48:57;10.60;99.90
8820;DHT22;4446;50.876;4.736;2023-04-28T05:51:40;10.70;99.90
8820;DHT22;4446;50.876;4.736;2023-04-28T05:54:07;10.70;99.90
8820;DHT22;4446;50.876;4.736;2023-04-28T05:56:34;10.80;99.90
8820;DHT22;4446;50.876;4.736;2023-04-28T05:59:02;10.90;99.90
8820;DHT22;4446;50.876;4.736;2023-04-28T06:01:29;11.00;99.90
8820;DHT22;4446;50.876;4.736;2023-04-28T06:03:57;11.00;99.90
8820;DHT22;4446;50.876;4.736;2023-04-28T06:06:24;11.10;99.90
8820;DHT22;4446;50.876;4.736;2023-04-28T06:08:52;11.10;99.90
8820;DHT22;4446;50.876;4.736;2023-04-28T06:11:20;11.20;99.90
8820;DHT22;4446;50.876;4.736;2023-04-28T06:13:48;11.20;99.90
8820;DHT22;4446;50.876;4.736;2023-04-28T06:16:16;11.30;99.90
8820;DHT22;4446;50.876;4.736;2023-04-28T06:18:44;11.20;99.90
8820;DHT22;4446;50.876;4.736;2023-04-28T06:21:11;11.20;99.90
8820;DHT22;4446;50.876;4.736;2023-04-28T06:23:38;11.20;99.90
8820;DHT22;4446;50.876;4.736;2023-04-28T06:26:07;11.20;99.90
8820;DHT22;4446;50.876;4.736;2023-04-28T06:28:34;11.20;99.90
8820;DHT22;4446;50.876;4.736;2023-04-28T06:31:01;11.30;99.90
8820;DHT22;4446;50.876;4.736;2023-04-28T06:33:29;11.40;99.90
8820;DHT22;4446;50.876;4.736;2023-04-28T06:35:56;11.50;99.90
8820;DHT22;4446;50.876;4.736;2023-04-28T06:38:23;11.60;99.90
8820;DHT22;4446;50.876;4.736;2023-04-28T06:40:51;11.60;99.90
8820;DHT22;4446;50.876;4.736;2023-04-28T06:43:18;11.70;99.90
8820;DHT22;4446;50.876;4.736;2023-04-28T06:45:45;11.90;99.90
8820;DHT22;4446;50.876;4.736;2023-04-28T06:48:12;12.10;99.90
8820;DHT22;4446;50.876;4.736;2023-04-28T06:50:41;12.20;99.90
8820;DHT22;4446;50.876;4.736;2023-04-28T06:53:08;12.30;99.90
8820;DHT22;4446;50.876;4.736;2023-04-28T06:55:35;12.40;99.90
8820;DHT22;4446;50.876;4.736;2023-04-28T06:58:02;12.40;99.90
8820;DHT22;4446;50.876;4.736;2023-04-28T07:00:29;12.50;99.90
8820;DHT22;4446;50.876;4.736;2023-04-28T07:02:56;12.50;99.90
8820;DHT22;4446;50.876;4.736;2023-04-28T07:05:23;12.60;99.90
8820;DHT22;4446;50.876;4.736;2023-04-28T07:07:51;12.60;99.90
8820;DHT22;4446;50.876;4.736;2023-04-28T07:10:19;12.70;99.90
8820;DHT22;4446;50.876;4.736;2023-04-28T07:12:46;12.90;99.90
8820;DHT22;4446;50.876;4.736;2023-04-28T07:15:13;13.10;99.90
8820;DHT22;4446;50.876;4.736;2023-04-28T07:17:39;13.20;99.90
8820;DHT22;4446;50.876;4.736;2023-04-28T07:20:08;13.40;99.90
8820;DHT22;4446;50.876;4.736;2023-04-28T07:22:35;13.50;99.90
8820;DHT22;4446;50.876;4.736;2023-04-28T07:25:04;13.60;99.90
8820;DHT22;4446;50.876;4.736;2023-04-28T07:27:31;13.60;99.90
8820;DHT22;4446;50.876;4.736;2023-04-28T07:29:58;13.70;99.90
8820;DHT22;4446;50.876;4.736;2023-04-28T07:32:25;13.80;99.90
8820;DHT22;4446;50.876;4.736;2023-04-28T07:34:52;13.90;99.90
8820;DHT22;4446;50.876;4.736;2023-04-28T07:37:19;14.00;99.90
8820;DHT22;4446;50.876;4.736;2023-04-28T07:39:46;14.00;99.90
8820;DHT22;4446;50.876;4.736;2023-04-28T07:42:15;14.10;99.90
8820;DHT22;4446;50.876;4.736;2023-04-28T07:44:44;14.10;99.90
8820;DHT22;4446;50.876;4.736;2023-04-28T07:47:11;14.00;99.90
8820;DHT22;4446;50.876;4.736;2023-04-28T07:49:38;14.00;99.90
8820;DHT22;4446;50.876;4.736;2023-04-28T07:52:05;14.00;99.90
8820;DHT22;4446;50.876;4.736;2023-04-28T07:54:32;14.10;99.90
8820;DHT22;4446;50.876;4.736;2023-04-28T07:56:59;14.10;99.90
8820;DHT22;4446;50.876;4.736;2023-04-28T07:59:28;14.10;99.90
8820;DHT22;4446;50.876;4.736;2023-04-28T08:01:55;14.10;99.90
8820;DHT22;4446;50.876;4.736;2023-04-28T08:04:22;14.20;99.90
8820;DHT22;4446;50.876;4.736;2023-04-28T08:06:49;14.30;99.90
8820;DHT22;4446;50.876;4.736;2023-04-28T08:09:16;14.40;99.90
8820;DHT22;4446;50.876;4.736;2023-04-28T08:11:43;14.40;99.90
8820;DHT22;4446;50.876;4.736;2023-04-28T08:14:10;14.50;99.90
8820;DHT22;4446;50.876;4.736;2023-04-28T08:16:38;14.50;99.90
8820;DHT22;4446;50.876;4.736;2023-04-28T08:19:05;14.60;99.90
8820;DHT22;4446;50.876;4.736;2023-04-28T08:21:33;14.70;99.90
8820;DHT22;4446;50.876;4.736;2023-04-28T08:24:00;14.80;99.90
8820;DHT22;4446;50.876;4.736;2023-04-28T08:26:27;15.10;99.90
8820;DHT22;4446;50.876;4.736;2023-04-28T08:28:54;15.30;99.90
8820;DHT22;4446;50.876;4.736;2023-04-28T08:31:21;15.40;99.90
8820;DHT22;4446;50.876;4.736;2023-04-28T08:33:49;15.50;99.90
8820;DHT22;4446;50.876;4.736;2023-04-28T08:36:16;15.50;99.90
8820;DHT22;4446;50.876;4.736;2023-04-28T08:38:44;15.60;99.90
8820;DHT22;4446;50.876;4.736;2023-04-28T08:41:12;15.50;99.90
8820;DHT22;4446;50.876;4.736;2023-04-28T08:43:40;15.70;99.90
8820;DHT22;4446;50.876;4.736;2023-04-28T08:46:08;15.60;99.90
8820;DHT22;4446;50.876;4.736;2023-04-28T08:48:40;15.60;99.90
8820;DHT22;4446;50.876;4.736;2023-04-28T08:51:14;15.60;99.90
8820;DHT22;4446;50.876;4.736;2023-04-28T08:53:44;15.70;99.90
8820;DHT22;4446;50.876;4.736;2023-04-28T08:56:15;15.80;99.90
8820;DHT22;4446;50.876;4.736;2023-04-28T08:58:43;15.80;99.90
8820;DHT22;4446;50.876;4.736;2023-04-28T09:01:09;15.80;99.90
8820;DHT22;4446;50.876;4.736;2023-04-28T09:03:36;16.00;99.90
8820;DHT22;4446;50.876;4.736;2023-04-28T09:06:04;16.10;99.90
8820;DHT22;4446;50.876;4.736;2023-04-28T09:08:32;16.20;99.90
8820;DHT22;4446;50.876;4.736;2023-04-28T09:11:05;16.20;99.90
8820;DHT22;4446;50.876;4.736;2023-04-28T09:13:33;16.30;99.90
8820;DHT22;4446;50.876;4.736;2023-04-28T09:16:01;16.30;99.90
8820;DHT22;4446;50.876;4.736;2023-04-28T09:18:28;16.20;99.90
8820;DHT22;4446;50.876;4.736;2023-04-28T09:21:06;16.20;99.90
8820;DHT22;4446;50.876;4.736;2023-04-28T09:23:46;16.20;99.90
8820;DHT22;4446;50.876;4.736;2023-04-28T09:26:13;16.20;99.90
8820;DHT22;4446;50.876;4.736;2023-04-28T09:28:40;16.20;99.90
8820;DHT22;4446;50.876;4.736;2023-04-28T09:31:21;16.10;99.90
8820;DHT22;4446;50.876;4.736;2023-04-28T09:33:55;16.20;99.90
8820;DHT22;4446;50.876;4.736;2023-04-28T09:36:25;16.10;99.90
8820;DHT22;4446;50.876;4.736;2023-04-28T09:38:57;16.10;99.90
8820;DHT22;4446;50.876;4.736;2023-04-28T09:41:35;16.10;99.90
8820;DHT22;4446;50.876;4.736;2023-04-28T09:44:10;16.10;99.90
8820;DHT22;4446;50.876;4.736;2023-04-28T09:46:37;16.10;99.90
8820;DHT22;4446;50.876;4.736;2023-04-28T09:49:04;16.20;99.90
8820;DHT22;4446;50.876;4.736;2023-04-28T09:51:31;16.40;99.90
8820;DHT22;4446;50.876;4.736;2023-04-28T09:54:00;16.50;99.90
8820;DHT22;4446;50.876;4.736;2023-04-28T09:56:28;16.70;99.90
8820;DHT22;4446;50.876;4.736;2023-04-28T09:58:56;16.80;99.90
8820;DHT22;4446;50.876;4.736;2023-04-28T10:01:26;16.90;99.90
8820;DHT22;4446;50.876;4.736;2023-04-28T10:03:53;17.20;99.90
8820;DHT22;4446;50.876;4.736;2023-04-28T10:06:22;17.40;99.90
8820;DHT22;4446;50.876;4.736;2023-04-28T10:08:50;17.60;99.90
8820;DHT22;4446;50.876;4.736;2023-04-28T10:11:18;17.80;99.90
8820;DHT22;4446;50.876;4.736;2023-04-28T10:13:48;17.90;99.90
8820;DHT22;4446;50.876;4.736;2023-04-28T10:16:16;17.90;99.90
8820;DHT22;4446;50.876;4.736;2023-04-28T10:18:44;17.90;99.90
8820;DHT22;4446;50.876;4.736;2023-04-28T10:21:13;18.10;99.90
8820;DHT22;4446;50.876;4.736;2023-04-28T10:27:03;18.00;99.90
8820;DHT22;4446;50.876;4.736;2023-04-28T10:29:31;18.00;99.90
8820;DHT22;4446;50.876;4.736;2023-04-28T10:32:17;18.00;99.90
8820;DHT22;4446;50.876;4.736;2023-04-28T10:34:45;17.90;99.90
8820;DHT22;4446;50.876;4.736;2023-04-28T10:37:13;17.90;99.90
8820;DHT22;4446;50.876;4.736;2023-04-28T10:42:55;18.10;99.90
8820;DHT22;4446;50.876;4.736;2023-04-28T10:48:56;18.40;99.90
8820;DHT22;4446;50.876;4.736;2023-04-28T10:51:30;18.40;99.90
8820;DHT22;4446;50.876;4.736;2023-04-28T10:54:17;18.40;99.90
8820;DHT22;4446;50.876;4.736;2023-04-28T10:57:16;18.30;99.90
8820;DHT22;4446;50.876;4.736;2023-04-28T10:59:51;18.30;99.90
8820;DHT22;4446;50.876;4.736;2023-04-28T11:02:40;18.20;99.90
8820;DHT22;4446;50.876;4.736;2023-04-28T11:05:14;18.20;99.90
8820;DHT22;4446;50.876;4.736;2023-04-28T11:11:27;18.60;99.90
8820;DHT22;4446;50.876;4.736;2023-04-28T11:14:29;18.80;99.90
8820;DHT22;4446;50.876;4.736;2023-04-28T11:16:48;18.80;99.90
8820;DHT22;4446;50.876;4.736;2023-04-28T11:19:19;19.10;99.90
8820;DHT22;4446;50.876;4.736;2023-04-28T11:21:47;19.00;99.90
8820;DHT22;4446;50.876;4.736;2023-04-28T11:24:14;18.90;99.90
8820;DHT22;4446;50.876;4.736;2023-04-28T11:26:42;18.60;99.90
8820;DHT22;4446;50.876;4.736;2023-04-28T11:29:10;18.50;99.90
8820;DHT22;4446;50.876;4.736;2023-04-28T11:31:37;18.70;99.90
8820;DHT22;4446;50.876;4.736;2023-04-28T11:34:05;19.00;99.90
8820;DHT22;4446;50.876;4.736;2023-04-28T11:36:36;19.10;99.90
8820;DHT22;4446;50.876;4.736;2023-04-28T11:39:04;19.30;99.90
8820;DHT22;4446;50.876;4.736;2023-04-28T11:41:32;19.40;99.90
8820;DHT22;4446;50.876;4.736;2023-04-28T11:44:00;19.20;99.90
8820;DHT22;4446;50.876;4.736;2023-04-28T11:46:27;19.30;99.90
8820;DHT22;4446;50.876;4.736;2023-04-28T11:49:01;19.40;99.90
8820;DHT22;4446;50.876;4.736;2023-04-28T11:51:30;19.10;99.90
8820;DHT22;4446;50.876;4.736;2023-04-28T11:54:00;19.00;99.90
8820;DHT22;4446;50.876;4.736;2023-04-28T11:56:27;18.80;99.90
8820;DHT22;4446;50.876;4.736;2023-04-28T11:59:02;18.70;99.90
8820;DHT22;4446;50.876;4.736;2023-04-28T12:01:30;18.50;99.90
8820;DHT22;4446;50.876;4.736;2023-04-28T12:03:57;18.40;99.90
8820;DHT22;4446;50.876;4.736;2023-04-28T12:06:24;18.30;99.90
8820;DHT22;4446;50.876;4.736;2023-04-28T12:08:52;18.20;99.90
8820;DHT22;4446;50.876;4.736;2023-04-28T12:11:20;18.10;99.90
8820;DHT22;4446;50.876;4.736;2023-04-28T12:16:42;18.00;99.90
8820;DHT22;4446;50.876;4.736;2023-04-28T12:19:11;17.80;99.90
8820;DHT22;4446;50.876;4.736;2023-04-28T12:21:40;17.70;99.90
8820;DHT22;4446;50.876;4.736;2023-04-28T12:24:18;17.60;99.90
8820;DHT22;4446;50.876;4.736;2023-04-28T12:26:47;17.70;99.90
8820;DHT22;4446;50.876;4.736;2023-04-28T12:29:37;17.50;99.90
8820;DHT22;4446;50.876;4.736;2023-04-28T12:32:06;17.40;99.90
8820;DHT22;4446;50.876;4.736;2023-04-28T12:34:34;17.20;99.90
8820;DHT22;4446;50.876;4.736;2023-04-28T12:37:01;17.20;99.90
8820;DHT22;4446;50.876;4.736;2023-04-28T12:39:30;17.30;99.90
8820;DHT22;4446;50.876;4.736;2023-04-28T12:41:59;17.50;99.90
8820;DHT22;4446;50.876;4.736;2023-04-28T12:44:27;17.80;99.90
8820;DHT22;4446;50.876;4.736;2023-04-28T12:46:54;17.80;99.90
8820;DHT22;4446;50.876;4.736;2023-04-28T12:49:21;17.80;99.90
8820;DHT22;4446;50.876;4.736;2023-04-28T12:51:48;17.90;99.90
8820;DHT22;4446;50.876;4.736;2023-04-28T12:54:16;17.80;99.90
8820;DHT22;4446;50.876;4.736;2023-04-28T12:56:43;18.00;99.90
8820;DHT22;4446;50.876;4.736;2023-04-28T12:59:11;18.10;99.90
8820;DHT22;4446;50.876;4.736;2023-04-28T13:01:38;18.10;99.90
8820;DHT22;4446;50.876;4.736;2023-04-28T13:04:05;17.90;99.90
8820;DHT22;4446;50.876;4.736;2023-04-28T13:06:33;17.70;99.90
8820;DHT22;4446;50.876;4.736;2023-04-28T13:09:01;17.80;99.90
8820;DHT22;4446;50.876;4.736;2023-04-28T13:11:28;17.80;99.90
8820;DHT22;4446;50.876;4.736;2023-04-28T13:13:56;17.80;99.90
8820;DHT22;4446;50.876;4.736;2023-04-28T13:16:26;17.60;99.90
8820;DHT22;4446;50.876;4.736;2023-04-28T13:18:55;17.50;99.90
8820;DHT22;4446;50.876;4.736;2023-04-28T13:21:22;17.60;99.90
8820;DHT22;4446;50.876;4.736;2023-04-28T13:23:51;17.40;99.90
8820;DHT22;4446;50.876;4.736;2023-04-28T13:26:18;17.30;99.90
8820;DHT22;4446;50.876;4.736;2023-04-28T13:28:46;17.10;99.90
8820;DHT22;4446;50.876;4.736;2023-04-28T13:31:13;16.90;99.90
8820;DHT22;4446;50.876;4.736;2023-04-28T13:33:41;16.80;99.90
8820;DHT22;4446;50.876;4.736;2023-04-28T13:36:08;16.70;99.90
8820;DHT22;4446;50.876;4.736;2023-04-28T13:38:35;16.60;99.90
8820;DHT22;4446;50.876;4.736;2023-04-28T13:41:02;16.60;99.90
8820;DHT22;4446;50.876;4.736;2023-04-28T13:43:29;16.70;99.90
8820;DHT22;4446;50.876;4.736;2023-04-28T13:45:57;16.80;99.90
8820;DHT22;4446;50.876;4.736;2023-04-28T13:48:24;17.00;99.90
8820;DHT22;4446;50.876;4.736;2023-04-28T13:50:53;17.10;99.90
8820;DHT22;4446;50.876;4.736;2023-04-28T13:53:20;17.10;99.90
8820;DHT22;4446;50.876;4.736;2023-04-28T13:55:49;17.00;99.90
8820;DHT22;4446;50.876;4.736;2023-04-28T13:58:18;16.90;99.90
8820;DHT22;4446;50.876;4.736;2023-04-28T14:00:45;16.80;99.90
8820;DHT22;4446;50.876;4.736;2023-04-28T14:03:12;16.70;99.90
8820;DHT22;4446;50.876;4.736;2023-04-28T14:05:40;16.60;99.90
8820;DHT22;4446;50.876;4.736;2023-04-28T14:08:09;16.60;99.90
8820;DHT22;4446;50.876;4.736;2023-04-28T14:10:36;16.70;99.90
8820;DHT22;4446;50.876;4.736;2023-04-28T14:13:03;16.70;99.90
8820;DHT22;4446;50.876;4.736;2023-04-28T14:15:30;16.70;99.90
8820;DHT22;4446;50.876;4.736;2023-04-28T14:17:58;16.70;99.90
8820;DHT22;4446;50.876;4.736;2023-04-28T14:20:25;16.70;99.90
8820;DHT22;4446;50.876;4.736;2023-04-28T14:22:52;16.70;99.90
8820;DHT22;4446;50.876;4.736;2023-04-28T14:25:21;16.60;99.90
8820;DHT22;4446;50.876;4.736;2023-04-28T14:27:48;16.50;99.90
8820;DHT22;4446;50.876;4.736;2023-04-28T14:30:16;16.60;99.90
8820;DHT22;4446;50.876;4.736;2023-04-28T14:32:43;16.50;99.90
8820;DHT22;4446;50.876;4.736;2023-04-28T14:35:12;16.60;99.90
8820;DHT22;4446;50.876;4.736;2023-04-28T14:37:40;16.80;99.90
8820;DHT22;4446;50.876;4.736;2023-04-28T14:40:08;16.90;99.90
8820;DHT22;4446;50.876;4.736;2023-04-28T14:42:36;16.90;99.90
8820;DHT22;4446;50.876;4.736;2023-04-28T14:45:03;16.90;99.90
8820;DHT22;4446;50.876;4.736;2023-04-28T14:47:31;17.00;99.90
8820;DHT22;4446;50.876;4.736;2023-04-28T14:49:58;16.90;99.90
8820;DHT22;4446;50.876;4.736;2023-04-28T14:52:25;16.80;99.90
8820;DHT22;4446;50.876;4.736;2023-04-28T14:54:55;16.70;99.90
8820;DHT22;4446;50.876;4.736;2023-04-28T14:57:22;16.60;99.90
8820;DHT22;4446;50.876;4.736;2023-04-28T14:59:51;16.50;99.90
8820;DHT22;4446;50.876;4.736;2023-04-28T15:02:18;16.50;99.90
8820;DHT22;4446;50.876;4.736;2023-04-28T15:04:50;16.50;99.90
8820;DHT22;4446;50.876;4.736;2023-04-28T15:07:17;16.60;99.90
8820;DHT22;4446;50.876;4.736;2023-04-28T15:09:45;16.60;99.90
8820;DHT22;4446;50.876;4.736;2023-04-28T15:12:12;16.70;99.90
8820;DHT22;4446;50.876;4.736;2023-04-28T15:14:39;16.80;99.90
8820;DHT22;4446;50.876;4.736;2023-04-28T15:17:07;16.80;99.90
8820;DHT22;4446;50.876;4.736;2023-04-28T15:19:35;16.80;99.90
8820;DHT22;4446;50.876;4.736;2023-04-28T15:22:02;16.90;99.90
8820;DHT22;4446;50.876;4.736;2023-04-28T15:24:29;17.00;99.90
8820;DHT22;4446;50.876;4.736;2023-04-28T15:26:56;17.20;99.90
8820;DHT22;4446;50.876;4.736;2023-04-28T15:29:24;17.40;99.90
8820;DHT22;4446;50.876;4.736;2023-04-28T15:31:51;17.60;99.90
8820;DHT22;4446;50.876;4.736;2023-04-28T15:34:19;17.70;99.90
8820;DHT22;4446;50.876;4.736;2023-04-28T15:36:47;17.80;99.90
8820;DHT22;4446;50.876;4.736;2023-04-28T15:39:14;17.80;99.90
8820;DHT22;4446;50.876;4.736;2023-04-28T15:41:41;17.80;99.90
8820;DHT22;4446;50.876;4.736;2023-04-28T15:44:08;17.80;99.90
8820;DHT22;4446;50.876;4.736;2023-04-28T15:46:36;17.80;99.90
8820;DHT22;4446;50.876;4.736;2023-04-28T15:49:03;17.70;99.90
8820;DHT22;4446;50.876;4.736;2023-04-28T15:51:31;17.60;99.90
8820;DHT22;4446;50.876;4.736;2023-04-28T15:53:58;17.50;99.90
8820;DHT22;4446;50.876;4.736;2023-04-28T15:56:25;17.40;99.90
8820;DHT22;4446;50.876;4.736;2023-04-28T15:58:55;17.40;99.90
8820;DHT22;4446;50.876;4.736;2023-04-28T16:01:23;17.50;99.90
8820;DHT22;4446;50.876;4.736;2023-04-28T16:03:50;17.60;99.90
8820;DHT22;4446;50.876;4.736;2023-04-28T16:06:17;17.60;99.90
8820;DHT22;4446;50.876;4.736;2023-04-28T16:08:45;17.60;99.90
8820;DHT22;4446;50.876;4.736;2023-04-28T16:11:12;17.50;99.90
8820;DHT22;4446;50.876;4.736;2023-04-28T16:13:44;17.50;99.90
8820;DHT22;4446;50.876;4.736;2023-04-28T16:16:11;17.40;99.90
8820;DHT22;4446;50.876;4.736;2023-04-28T16:18:38;17.40;99.90
8820;DHT22;4446;50.876;4.736;2023-04-28T16:21:05;17.20;99.90
8820;DHT22;4446;50.876;4.736;2023-04-28T16:23:32;17.10;99.90
8820;DHT22;4446;50.876;4.736;2023-04-28T16:26:00;16.90;99.90
8820;DHT22;4446;50.876;4.736;2023-04-28T16:28:27;16.70;99.90
8820;DHT22;4446;50.876;4.736;2023-04-28T16:30:54;16.60;99.90